Terminal Aerodrome Forecast
Issued by NWS

Home | Current Version | Previous Version | Text Only | Print | Product List | Glossary On
Versions: 1 2 3 4 5 6 7 8 9 10 11 12 13 14 15 16 17 18
000
FTUS41 KBGM 260800 AAA
TAFRME
TAF AMD
KRME 260835Z 2609/2706 00000KT P6SM BKN200
     FM261500 22008KT P6SM BKN120
     FM261800 24007KT P6SM BKN060
     FM270000 11002KT P6SM SCT050 BKN120=

USA.gov is the U.S. government's official web portal to all federal, state and local government web resources and services.